DLH2015 EDDS-EGKK
Flight info
| Callsign | DLH2015 |
|---|---|
| Flight time | 1h 14m |
| Altitude | 40000 |
| Route | VESID4B/25 VESID Y127 BANIM L608 LIRSU DCT SPI DCT DENUT L610 TEBRA |
| Aircraft | A359/H-SDE2E3GHIJ3J4J5LM1ORWXY/LB1D1 |
Departure
| Time | 2026-05-05 16:23 |
|---|---|
| Airport | Stuttgart Airport (EDDS) |
Arrival
| Time | 2026-05-05 17:37 |
|---|---|
| Airport | London Gatwick Airport (EGKK) |
| Time | Latitude | Longitude | Altitude | Speed | Heading |
|---|---|---|---|---|---|
| 2026-05-05 15:52 | 48.69180 | 9.20627 | 1291 ft | 0 kts | 345° |
| 2026-05-05 16:06 | 48.69172 | 9.20630 | 1291 ft | 0 kts | 328° |
| 2026-05-05 16:07 | 48.69161 | 9.20641 | 1291 ft | 3 kts | 322° |
| 2026-05-05 16:07 | 48.69146 | 9.20659 | 1291 ft | 3 kts | 300° |
| 2026-05-05 16:07 | 48.69140 | 9.20680 | 1291 ft | 0 kts | 269° |
| 2026-05-05 16:09 | 48.69140 | 9.20673 | 1291 ft | 2 kts | 269° |
| 2026-05-05 16:09 | 48.69138 | 9.20643 | 1291 ft | 4 kts | 259° |
| 2026-05-05 16:10 | 48.69131 | 9.20588 | 1291 ft | 6 kts | 259° |
| 2026-05-05 16:10 | 48.69111 | 9.20520 | 1291 ft | 8 kts | 239° |
| 2026-05-05 16:10 | 48.69075 | 9.20490 | 1291 ft | 0 kts | 181° |
| 2026-05-05 16:10 | 48.69073 | 9.20490 | 1291 ft | 1 kts | 179° |
| 2026-05-05 16:11 | 48.69064 | 9.20494 | 1291 ft | 2 kts | 164° |
| 2026-05-05 16:11 | 48.68984 | 9.20599 | 1291 ft | 9 kts | 130° |
| 2026-05-05 16:12 | 48.68967 | 9.20690 | 1291 ft | 10 kts | 90° |
| 2026-05-05 16:12 | 48.69009 | 9.20930 | 1291 ft | 14 kts | 73° |
| 2026-05-05 16:13 | 48.69104 | 9.21423 | 1291 ft | 19 kts | 72° |
| 2026-05-05 16:13 | 48.69142 | 9.21621 | 1291 ft | 20 kts | 74° |
| 2026-05-05 16:13 | 48.69183 | 9.21835 | 1291 ft | 22 kts | 74° |
| 2026-05-05 16:14 | 48.69272 | 9.22310 | 1291 ft | 25 kts | 74° |
| 2026-05-05 16:14 | 48.69374 | 9.22845 | 1291 ft | 28 kts | 73° |
| 2026-05-05 16:15 | 48.69484 | 9.23428 | 1291 ft | 30 kts | 74° |
| 2026-05-05 16:15 | 48.69595 | 9.24016 | 1291 ft | 23 kts | 74° |
| 2026-05-05 16:16 | 48.69607 | 9.24149 | 1291 ft | 0 kts | 110° |
| 2026-05-05 16:17 | 48.69603 | 9.24165 | 1291 ft | 3 kts | 110° |
| 2026-05-05 16:17 | 48.69592 | 9.24208 | 1291 ft | 6 kts | 114° |
| 2026-05-05 16:18 | 48.69511 | 9.24307 | 1291 ft | 0 kts | 160° |
| 2026-05-05 16:20 | 48.69481 | 9.24322 | 1291 ft | 5 kts | 164° |
| 2026-05-05 16:21 | 48.69386 | 9.24259 | 1291 ft | 9 kts | 237° |
| 2026-05-05 16:22 | 48.69266 | 9.23667 | 1291 ft | 95 kts | 254° |
| 2026-05-05 16:22 | 48.68660 | 9.20604 | 1836 ft | 180 kts | 255° |
| 2026-05-05 16:23 | 48.68035 | 9.17169 | 2980 ft | 173 kts | 253° |
| 2026-05-05 16:23 | 48.67680 | 9.15317 | 3126 ft | 196 kts | 253° |
| 2026-05-05 16:23 | 48.66998 | 9.10894 | 3992 ft | 228 kts | 270° |
| 2026-05-05 16:24 | 48.67437 | 9.08584 | 4725 ft | 235 kts | 298° |
| 2026-05-05 16:24 | 48.68660 | 9.06900 | 5392 ft | 246 kts | 328° |
| 2026-05-05 16:24 | 48.72055 | 9.05047 | 6406 ft | 272 kts | 338° |
| 2026-05-05 16:25 | 48.73878 | 9.04166 | 6989 ft | 279 kts | 338° |
| 2026-05-05 16:25 | 48.77615 | 9.02312 | 8247 ft | 287 kts | 338° |
| 2026-05-05 16:25 | 48.79506 | 9.01308 | 8938 ft | 290 kts | 335° |
| 2026-05-05 16:26 | 48.83328 | 8.99084 | 10171 ft | 302 kts | 335° |
| 2026-05-05 16:26 | 48.87451 | 8.96647 | 10690 ft | 334 kts | 335° |
| 2026-05-05 16:27 | 48.89656 | 8.95346 | 11041 ft | 345 kts | 335° |
| 2026-05-05 16:27 | 48.91913 | 8.94017 | 11582 ft | 349 kts | 335° |
| 2026-05-05 16:27 | 48.94191 | 8.92676 | 12160 ft | 353 kts | 335° |
| 2026-05-05 16:27 | 48.96489 | 8.91316 | 12729 ft | 356 kts | 336° |
| 2026-05-05 16:28 | 48.98828 | 8.89919 | 13134 ft | 364 kts | 336° |
| 2026-05-05 16:28 | 49.01194 | 8.88507 | 13624 ft | 367 kts | 336° |
| 2026-05-05 16:28 | 49.03579 | 8.87084 | 13978 ft | 368 kts | 336° |
| 2026-05-05 16:28 | 49.05969 | 8.85655 | 14358 ft | 371 kts | 336° |
| 2026-05-05 16:29 | 49.08347 | 8.84230 | 14749 ft | 373 kts | 336° |
| 2026-05-05 16:29 | 49.10768 | 8.82779 | 15147 ft | 374 kts | 336° |
| 2026-05-05 16:29 | 49.13191 | 8.81325 | 15529 ft | 375 kts | 336° |
| 2026-05-05 16:29 | 49.15657 | 8.79984 | 15934 ft | 378 kts | 343° |
| 2026-05-05 16:30 | 49.18280 | 8.79465 | 16340 ft | 383 kts | 356° |
| 2026-05-05 16:30 | 49.20954 | 8.79536 | 16755 ft | 387 kts | 2° |
| 2026-05-05 16:30 | 49.23656 | 8.79881 | 17174 ft | 390 kts | 5° |
| 2026-05-05 16:30 | 49.26367 | 8.80343 | 17598 ft | 393 kts | 6° |
| 2026-05-05 16:31 | 49.29088 | 8.80823 | 18026 ft | 396 kts | 6° |
| 2026-05-05 16:31 | 49.31841 | 8.81286 | 18412 ft | 398 kts | 5° |
| 2026-05-05 16:31 | 49.34597 | 8.81716 | 18789 ft | 400 kts | 5° |
| 2026-05-05 16:31 | 49.37376 | 8.82122 | 19161 ft | 402 kts | 5° |
| 2026-05-05 16:32 | 49.40176 | 8.82515 | 19563 ft | 404 kts | 5° |
| 2026-05-05 16:32 | 49.42986 | 8.82899 | 19957 ft | 407 kts | 5° |
| 2026-05-05 16:32 | 49.45821 | 8.83285 | 20355 ft | 410 kts | 5° |
| 2026-05-05 16:32 | 49.48673 | 8.83671 | 20742 ft | 413 kts | 5° |
| 2026-05-05 16:33 | 49.51543 | 8.84059 | 21150 ft | 415 kts | 5° |
| 2026-05-05 16:33 | 49.54431 | 8.84076 | 21563 ft | 416 kts | 355° |
| 2026-05-05 16:33 | 49.57272 | 8.83242 | 21975 ft | 417 kts | 342° |
| 2026-05-05 16:33 | 49.59916 | 8.81424 | 22403 ft | 417 kts | 327° |
| 2026-05-05 16:34 | 49.62193 | 8.78660 | 22864 ft | 416 kts | 314° |
| 2026-05-05 16:34 | 49.64191 | 8.75444 | 23279 ft | 416 kts | 310° |
| 2026-05-05 16:34 | 49.66079 | 8.72041 | 23673 ft | 417 kts | 308° |
| 2026-05-05 16:34 | 49.67913 | 8.68557 | 24035 ft | 418 kts | 307° |
| 2026-05-05 16:35 | 49.69711 | 8.65090 | 24413 ft | 420 kts | 307° |
| 2026-05-05 16:35 | 49.71610 | 8.61578 | 24798 ft | 422 kts | 311° |
| 2026-05-05 16:35 | 49.73635 | 8.58369 | 25181 ft | 424 kts | 313° |
| 2026-05-05 16:35 | 49.75745 | 8.55178 | 25573 ft | 425 kts | 315° |
| 2026-05-05 16:36 | 49.77900 | 8.52009 | 25970 ft | 427 kts | 315° |
| 2026-05-05 16:36 | 49.80073 | 8.48855 | 26373 ft | 429 kts | 315° |
| 2026-05-05 16:36 | 49.82222 | 8.45624 | 26778 ft | 431 kts | 311° |
| 2026-05-05 16:36 | 49.83521 | 8.43240 | 27057 ft | 431 kts | 305° |
| 2026-05-05 16:37 | 49.85119 | 8.39372 | 27482 ft | 431 kts | 295° |
| 2026-05-05 16:37 | 49.86321 | 8.35117 | 27892 ft | 432 kts | 288° |
| 2026-05-05 16:37 | 49.87355 | 8.30716 | 28333 ft | 435 kts | 286° |
| 2026-05-05 16:37 | 49.88310 | 8.26256 | 28755 ft | 438 kts | 285° |
| 2026-05-05 16:38 | 49.89236 | 8.21739 | 29224 ft | 441 kts | 284° |
| 2026-05-05 16:38 | 49.90158 | 8.17185 | 29702 ft | 444 kts | 284° |
| 2026-05-05 16:38 | 49.91087 | 8.12609 | 30102 ft | 447 kts | 284° |
| 2026-05-05 16:38 | 49.92033 | 8.07988 | 30500 ft | 449 kts | 284° |
| 2026-05-05 16:39 | 49.92986 | 8.03360 | 30915 ft | 452 kts | 284° |
| 2026-05-05 16:39 | 49.93933 | 7.98688 | 31307 ft | 453 kts | 282° |
| 2026-05-05 16:39 | 49.94607 | 7.93911 | 31724 ft | 452 kts | 275° |
| 2026-05-05 16:39 | 49.95082 | 7.89085 | 32142 ft | 453 kts | 274° |
| 2026-05-05 16:40 | 49.95501 | 7.84292 | 32551 ft | 454 kts | 273° |
| 2026-05-05 16:40 | 49.95894 | 7.79426 | 32976 ft | 455 kts | 272° |
| 2026-05-05 16:40 | 49.96273 | 7.74545 | 33438 ft | 456 kts | 272° |
| 2026-05-05 16:40 | 49.96649 | 7.69638 | 33876 ft | 457 kts | 272° |
| 2026-05-05 16:41 | 49.97025 | 7.64732 | 34251 ft | 458 kts | 272° |
| 2026-05-05 16:41 | 49.97404 | 7.59803 | 34637 ft | 459 kts | 272° |
| 2026-05-05 16:41 | 49.97784 | 7.54872 | 35024 ft | 459 kts | 273° |
| 2026-05-05 16:41 | 49.98164 | 7.49941 | 35430 ft | 459 kts | 273° |
| 2026-05-05 16:42 | 49.98543 | 7.45015 | 35834 ft | 459 kts | 273° |
| 2026-05-05 16:42 | 49.98919 | 7.40095 | 36242 ft | 458 kts | 273° |
| 2026-05-05 16:42 | 49.99293 | 7.35181 | 36658 ft | 457 kts | 273° |
| 2026-05-05 16:42 | 49.99664 | 7.30277 | 37086 ft | 456 kts | 273° |
| 2026-05-05 16:43 | 50.00027 | 7.25451 | 37532 ft | 454 kts | 274° |
| 2026-05-05 16:43 | 50.00395 | 7.20522 | 37987 ft | 452 kts | 274° |
| 2026-05-05 16:43 | 50.00755 | 7.15675 | 38441 ft | 450 kts | 274° |
| 2026-05-05 16:43 | 50.01110 | 7.10859 | 38809 ft | 447 kts | 274° |
| 2026-05-05 16:44 | 50.01458 | 7.06127 | 39162 ft | 445 kts | 274° |
| 2026-05-05 16:44 | 50.01805 | 7.01368 | 39530 ft | 442 kts | 274° |
| 2026-05-05 16:44 | 50.02180 | 6.96629 | 39781 ft | 443 kts | 276° |
| 2026-05-05 16:44 | 50.02849 | 6.91919 | 39807 ft | 451 kts | 284° |
| 2026-05-05 16:45 | 50.05377 | 6.82809 | 39796 ft | 467 kts | 295° |
| 2026-05-05 16:45 | 50.08524 | 6.73824 | 39798 ft | 479 kts | 296° |
| 2026-05-05 16:46 | 50.11815 | 6.64697 | 39796 ft | 488 kts | 296° |
| 2026-05-05 16:46 | 50.15118 | 6.55449 | 39790 ft | 487 kts | 296° |
| 2026-05-05 16:47 | 50.18382 | 6.46205 | 39802 ft | 486 kts | 296° |
| 2026-05-05 16:47 | 50.21861 | 6.37118 | 39807 ft | 488 kts | 300° |
| 2026-05-05 16:48 | 50.25499 | 6.28148 | 39807 ft | 489 kts | 300° |
| 2026-05-05 16:48 | 50.29113 | 6.19201 | 39827 ft | 490 kts | 300° |
| 2026-05-05 16:49 | 50.32721 | 6.10155 | 39826 ft | 490 kts | 299° |
| 2026-05-05 16:49 | 50.36315 | 6.01072 | 39831 ft | 490 kts | 299° |
| 2026-05-05 16:50 | 50.39897 | 5.91981 | 39839 ft | 490 kts | 299° |
| 2026-05-05 16:50 | 50.43478 | 5.82863 | 39837 ft | 490 kts | 299° |
| 2026-05-05 16:51 | 50.47050 | 5.73738 | 39841 ft | 490 kts | 299° |
| 2026-05-05 16:51 | 50.50592 | 5.64659 | 39841 ft | 490 kts | 299° |
| 2026-05-05 16:52 | 50.54120 | 5.55492 | 39849 ft | 490 kts | 298° |
| 2026-05-05 16:52 | 50.57605 | 5.46290 | 39849 ft | 489 kts | 298° |
| 2026-05-05 16:53 | 50.61083 | 5.37067 | 39852 ft | 489 kts | 298° |
| 2026-05-05 16:53 | 50.64553 | 5.27849 | 39857 ft | 489 kts | 298° |
| 2026-05-05 16:54 | 50.68019 | 5.18616 | 39858 ft | 489 kts | 298° |
| 2026-05-05 16:54 | 50.71473 | 5.09382 | 39857 ft | 489 kts | 298° |
| 2026-05-05 16:55 | 50.74925 | 5.00121 | 39863 ft | 489 kts | 298° |
| 2026-05-05 16:55 | 50.78368 | 4.90852 | 39870 ft | 489 kts | 298° |
| 2026-05-05 16:56 | 50.81775 | 4.81647 | 39875 ft | 488 kts | 298° |
| 2026-05-05 16:56 | 50.85199 | 4.72362 | 39873 ft | 488 kts | 298° |
| 2026-05-05 16:57 | 50.88615 | 4.63060 | 39885 ft | 489 kts | 298° |
| 2026-05-05 16:57 | 50.92030 | 4.53731 | 39883 ft | 489 kts | 298° |
| 2026-05-05 16:58 | 50.95439 | 4.44385 | 39885 ft | 489 kts | 297° |
| 2026-05-05 16:58 | 50.98843 | 4.35019 | 39881 ft | 489 kts | 297° |
| 2026-05-05 16:59 | 51.02236 | 4.25646 | 39879 ft | 489 kts | 297° |
| 2026-05-05 16:59 | 51.05594 | 4.16339 | 39878 ft | 489 kts | 297° |
| 2026-05-05 17:00 | 51.08981 | 4.06914 | 39878 ft | 489 kts | 297° |
| 2026-05-05 17:00 | 51.12352 | 3.97502 | 39877 ft | 489 kts | 297° |
| 2026-05-05 17:01 | 51.15713 | 3.88081 | 39872 ft | 489 kts | 297° |
| 2026-05-05 17:01 | 51.19068 | 3.78641 | 39882 ft | 489 kts | 297° |
| 2026-05-05 17:02 | 51.22363 | 3.69153 | 39875 ft | 488 kts | 293° |
| 2026-05-05 17:02 | 51.24494 | 3.59034 | 39881 ft | 484 kts | 282° |
| 2026-05-05 17:03 | 51.25974 | 3.48570 | 39881 ft | 483 kts | 279° |
| 2026-05-05 17:03 | 51.27330 | 3.38049 | 39889 ft | 483 kts | 279° |
| 2026-05-05 17:04 | 51.28660 | 3.27535 | 39890 ft | 479 kts | 279° |
| 2026-05-05 17:04 | 51.29314 | 3.22380 | 39670 ft | 469 kts | 279° |
| 2026-05-05 17:04 | 51.29964 | 3.17264 | 39072 ft | 469 kts | 279° |
| 2026-05-05 17:05 | 51.30615 | 3.12130 | 38346 ft | 471 kts | 278° |
| 2026-05-05 17:05 | 51.31265 | 3.06990 | 37476 ft | 473 kts | 279° |
| 2026-05-05 17:05 | 51.31918 | 3.01809 | 36525 ft | 478 kts | 278° |
| 2026-05-05 17:05 | 51.32574 | 2.96577 | 35637 ft | 481 kts | 278° |
| 2026-05-05 17:06 | 51.33234 | 2.91304 | 34773 ft | 484 kts | 278° |
| 2026-05-05 17:06 | 51.33894 | 2.86023 | 33983 ft | 486 kts | 278° |
| 2026-05-05 17:06 | 51.34546 | 2.80779 | 33133 ft | 486 kts | 278° |
| 2026-05-05 17:06 | 51.35203 | 2.75475 | 32279 ft | 486 kts | 278° |
| 2026-05-05 17:07 | 51.35867 | 2.70111 | 31468 ft | 486 kts | 278° |
| 2026-05-05 17:07 | 51.36521 | 2.64810 | 30787 ft | 483 kts | 278° |
| 2026-05-05 17:07 | 51.37159 | 2.59629 | 30147 ft | 479 kts | 278° |
| 2026-05-05 17:07 | 51.37800 | 2.54418 | 29462 ft | 475 kts | 278° |
| 2026-05-05 17:08 | 51.38432 | 2.49238 | 28785 ft | 471 kts | 278° |
| 2026-05-05 17:08 | 51.39055 | 2.44118 | 28137 ft | 467 kts | 278° |
| 2026-05-05 17:08 | 51.39669 | 2.39036 | 27543 ft | 462 kts | 278° |
| 2026-05-05 17:08 | 51.40275 | 2.34014 | 26992 ft | 456 kts | 278° |
| 2026-05-05 17:09 | 51.40873 | 2.29047 | 26396 ft | 451 kts | 278° |
| 2026-05-05 17:09 | 51.41461 | 2.24137 | 25840 ft | 447 kts | 278° |
| 2026-05-05 17:09 | 51.42039 | 2.19277 | 25257 ft | 442 kts | 279° |
| 2026-05-05 17:09 | 51.42611 | 2.14449 | 24685 ft | 438 kts | 279° |
| 2026-05-05 17:10 | 51.43175 | 2.09674 | 24122 ft | 435 kts | 279° |
| 2026-05-05 17:10 | 51.43733 | 2.04943 | 23579 ft | 430 kts | 279° |
| 2026-05-05 17:10 | 51.44285 | 2.00253 | 22920 ft | 426 kts | 279° |
| 2026-05-05 17:10 | 51.44847 | 1.95615 | 22249 ft | 423 kts | 279° |
| 2026-05-05 17:11 | 51.45417 | 1.91005 | 21553 ft | 420 kts | 281° |
| 2026-05-05 17:11 | 51.45981 | 1.86427 | 21010 ft | 414 kts | 280° |
| 2026-05-05 17:11 | 51.46514 | 1.81919 | 20344 ft | 411 kts | 280° |
| 2026-05-05 17:11 | 51.47037 | 1.77415 | 19640 ft | 410 kts | 280° |
| 2026-05-05 17:12 | 51.47550 | 1.72978 | 18972 ft | 409 kts | 280° |
| 2026-05-05 17:12 | 51.48065 | 1.68502 | 18337 ft | 407 kts | 280° |
| 2026-05-05 17:12 | 51.48524 | 1.64024 | 17556 ft | 407 kts | 275° |
| 2026-05-05 17:12 | 51.48392 | 1.59534 | 16966 ft | 401 kts | 258° |
| 2026-05-05 17:13 | 51.47601 | 1.55259 | 16109 ft | 402 kts | 250° |
| 2026-05-05 17:13 | 51.46626 | 1.51048 | 15339 ft | 402 kts | 249° |
| 2026-05-05 17:13 | 51.45642 | 1.46874 | 14719 ft | 397 kts | 249° |
| 2026-05-05 17:13 | 51.44675 | 1.42755 | 14217 ft | 390 kts | 249° |
| 2026-05-05 17:14 | 51.43567 | 1.38859 | 13874 ft | 380 kts | 238° |
| 2026-05-05 17:14 | 51.41867 | 1.35657 | 13522 ft | 377 kts | 221° |
| 2026-05-05 17:14 | 51.39803 | 1.33069 | 13250 ft | 378 kts | 216° |
| 2026-05-05 17:14 | 51.37685 | 1.30587 | 12997 ft | 377 kts | 216° |
| 2026-05-05 17:15 | 51.35571 | 1.28117 | 12778 ft | 375 kts | 216° |
| 2026-05-05 17:15 | 51.33467 | 1.25650 | 12517 ft | 375 kts | 216° |
| 2026-05-05 17:15 | 51.31367 | 1.23180 | 12270 ft | 374 kts | 216° |
| 2026-05-05 17:15 | 51.29273 | 1.20715 | 12026 ft | 373 kts | 216° |
| 2026-05-05 17:16 | 51.27184 | 1.18257 | 11783 ft | 372 kts | 216° |
| 2026-05-05 17:16 | 51.25098 | 1.15807 | 11531 ft | 372 kts | 216° |
| 2026-05-05 17:16 | 51.23046 | 1.13397 | 11296 ft | 370 kts | 216° |
| 2026-05-05 17:16 | 51.20959 | 1.10947 | 11064 ft | 368 kts | 217° |
| 2026-05-05 17:17 | 51.18946 | 1.08587 | 10870 ft | 356 kts | 217° |
| 2026-05-05 17:17 | 51.16994 | 1.06303 | 10688 ft | 341 kts | 217° |
| 2026-05-05 17:17 | 51.15111 | 1.04100 | 10461 ft | 329 kts | 217° |
| 2026-05-05 17:17 | 51.13296 | 1.01979 | 10246 ft | 318 kts | 217° |
| 2026-05-05 17:18 | 51.11541 | 0.99934 | 10016 ft | 307 kts | 217° |
| 2026-05-05 17:18 | 51.09851 | 0.97963 | 9813 ft | 297 kts | 217° |
| 2026-05-05 17:18 | 51.08199 | 0.96035 | 9563 ft | 294 kts | 217° |
| 2026-05-05 17:18 | 51.06570 | 0.94073 | 9345 ft | 293 kts | 222° |
| 2026-05-05 17:19 | 51.05189 | 0.91746 | 9183 ft | 287 kts | 234° |
| 2026-05-05 17:19 | 51.04184 | 0.89011 | 8989 ft | 287 kts | 250° |
| 2026-05-05 17:19 | 51.03556 | 0.86011 | 8740 ft | 285 kts | 256° |
| 2026-05-05 17:19 | 51.03050 | 0.82974 | 8603 ft | 284 kts | 257° |
| 2026-05-05 17:20 | 51.02576 | 0.79926 | 8486 ft | 284 kts | 258° |
| 2026-05-05 17:20 | 51.02115 | 0.76880 | 8367 ft | 283 kts | 258° |
| 2026-05-05 17:20 | 51.01663 | 0.73839 | 8249 ft | 283 kts | 259° |
| 2026-05-05 17:20 | 51.01213 | 0.70808 | 8129 ft | 282 kts | 259° |
| 2026-05-05 17:21 | 51.00765 | 0.67774 | 8028 ft | 281 kts | 259° |
| 2026-05-05 17:21 | 51.00325 | 0.64791 | 8023 ft | 281 kts | 259° |
| 2026-05-05 17:21 | 50.99877 | 0.61765 | 8039 ft | 281 kts | 259° |
| 2026-05-05 17:22 | 50.98982 | 0.55721 | 8045 ft | 281 kts | 259° |
| 2026-05-05 17:22 | 50.98534 | 0.52705 | 8046 ft | 281 kts | 259° |
| 2026-05-05 17:22 | 50.98206 | 0.49650 | 8047 ft | 279 kts | 268° |
| 2026-05-05 17:22 | 50.98108 | 0.46580 | 8039 ft | 279 kts | 271° |
| 2026-05-05 17:23 | 50.98063 | 0.43503 | 8055 ft | 278 kts | 272° |
| 2026-05-05 17:23 | 50.98018 | 0.40432 | 8045 ft | 278 kts | 271° |
| 2026-05-05 17:23 | 50.97995 | 0.38391 | 8042 ft | 278 kts | 271° |
| 2026-05-05 17:23 | 50.97957 | 0.35314 | 8043 ft | 278 kts | 271° |
| 2026-05-05 17:24 | 50.97922 | 0.32246 | 8038 ft | 278 kts | 271° |
| 2026-05-05 17:24 | 50.97881 | 0.29182 | 8034 ft | 278 kts | 271° |
| 2026-05-05 17:24 | 50.97842 | 0.26133 | 8035 ft | 271 kts | 271° |
| 2026-05-05 17:24 | 50.97796 | 0.23164 | 8021 ft | 264 kts | 271° |
| 2026-05-05 17:25 | 50.97741 | 0.20339 | 8019 ft | 248 kts | 270° |
| 2026-05-05 17:25 | 50.97712 | 0.18547 | 8021 ft | 245 kts | 270° |
| 2026-05-05 17:25 | 50.97651 | 0.14939 | 7994 ft | 245 kts | 271° |
| 2026-05-05 17:25 | 50.97604 | 0.12288 | 7999 ft | 245 kts | 271° |
| 2026-05-05 17:26 | 50.97569 | 0.09574 | 7985 ft | 245 kts | 271° |
| 2026-05-05 17:26 | 50.97536 | 0.06862 | 7972 ft | 246 kts | 271° |
| 2026-05-05 17:26 | 50.97492 | 0.04153 | 7956 ft | 246 kts | 271° |
| 2026-05-05 17:26 | 50.97440 | 0.01449 | 7960 ft | 245 kts | 271° |
| 2026-05-05 17:27 | 50.97401 | -0.01229 | 7930 ft | 246 kts | 271° |
| 2026-05-05 17:27 | 50.97364 | -0.03933 | 7939 ft | 246 kts | 271° |
| 2026-05-05 17:27 | 50.97333 | -0.06645 | 7929 ft | 245 kts | 271° |
| 2026-05-05 17:27 | 50.97312 | -0.09323 | 7734 ft | 240 kts | 274° |
| 2026-05-05 17:28 | 50.97550 | -0.11944 | 7357 ft | 240 kts | 284° |
| 2026-05-05 17:28 | 50.97936 | -0.14515 | 7009 ft | 240 kts | 286° |
| 2026-05-05 17:28 | 50.98336 | -0.17081 | 6689 ft | 238 kts | 286° |
| 2026-05-05 17:28 | 50.98731 | -0.19626 | 6360 ft | 237 kts | 286° |
| 2026-05-05 17:29 | 50.99124 | -0.22163 | 6044 ft | 236 kts | 286° |
| 2026-05-05 17:29 | 50.99512 | -0.24691 | 5694 ft | 235 kts | 286° |
| 2026-05-05 17:29 | 50.99898 | -0.27210 | 5372 ft | 234 kts | 286° |
| 2026-05-05 17:29 | 51.00285 | -0.29724 | 5046 ft | 233 kts | 286° |
| 2026-05-05 17:30 | 51.00663 | -0.32183 | 4903 ft | 224 kts | 286° |
| 2026-05-05 17:30 | 51.01017 | -0.34530 | 4789 ft | 214 kts | 285° |
| 2026-05-05 17:30 | 51.01349 | -0.36744 | 4684 ft | 205 kts | 286° |
| 2026-05-05 17:30 | 51.01665 | -0.38892 | 4542 ft | 197 kts | 286° |
| 2026-05-05 17:31 | 51.01975 | -0.40995 | 4322 ft | 194 kts | 285° |
| 2026-05-05 17:31 | 51.02282 | -0.43074 | 4061 ft | 192 kts | 286° |
| 2026-05-05 17:31 | 51.02640 | -0.45100 | 3783 ft | 190 kts | 298° |
| 2026-05-05 17:31 | 51.03536 | -0.46550 | 3469 ft | 185 kts | 336° |
| 2026-05-05 17:32 | 51.04746 | -0.47171 | 3220 ft | 182 kts | 349° |
| 2026-05-05 17:32 | 51.05973 | -0.47567 | 3018 ft | 181 kts | 351° |
| 2026-05-05 17:32 | 51.07216 | -0.47943 | 2986 ft | 182 kts | 351° |
| 2026-05-05 17:32 | 51.08469 | -0.48222 | 2985 ft | 181 kts | 5° |
| 2026-05-05 17:33 | 51.09626 | -0.47554 | 2902 ft | 177 kts | 33° |
| 2026-05-05 17:33 | 51.10591 | -0.46348 | 2572 ft | 178 kts | 47° |
| 2026-05-05 17:33 | 51.11247 | -0.44699 | 2270 ft | 179 kts | 69° |
| 2026-05-05 17:33 | 51.11546 | -0.42776 | 2039 ft | 177 kts | 78° |
| 2026-05-05 17:34 | 51.11799 | -0.40918 | 1977 ft | 164 kts | 76° |
| 2026-05-05 17:34 | 51.12038 | -0.39197 | 1997 ft | 158 kts | 76° |
| 2026-05-05 17:34 | 51.12275 | -0.37491 | 1990 ft | 158 kts | 76° |
| 2026-05-05 17:34 | 51.12514 | -0.35780 | 1996 ft | 159 kts | 76° |
| 2026-05-05 17:35 | 51.12753 | -0.34074 | 1943 ft | 159 kts | 76° |
| 2026-05-05 17:35 | 51.12991 | -0.32351 | 1737 ft | 159 kts | 76° |
| 2026-05-05 17:35 | 51.13223 | -0.30660 | 1545 ft | 154 kts | 77° |
| 2026-05-05 17:35 | 51.13451 | -0.28989 | 1309 ft | 154 kts | 77° |
| 2026-05-05 17:36 | 51.13677 | -0.27345 | 1093 ft | 150 kts | 77° |
| 2026-05-05 17:36 | 51.13892 | -0.25778 | 889 ft | 139 kts | 77° |
| 2026-05-05 17:36 | 51.14091 | -0.24323 | 690 ft | 130 kts | 77° |
| 2026-05-05 17:36 | 51.14276 | -0.22950 | 532 ft | 123 kts | 77° |
| 2026-05-05 17:37 | 51.14452 | -0.21639 | 370 ft | 120 kts | 77° |
| 2026-05-05 17:37 | 51.14635 | -0.20313 | 223 ft | 124 kts | 76° |
| 2026-05-05 17:37 | 51.14807 | -0.19090 | 214 ft | 86 kts | 77° |
| 2026-05-05 17:37 | 51.14914 | -0.18572 | 216 ft | 31 kts | 54° |
| 2026-05-05 17:38 | 51.15011 | -0.18376 | 221 ft | 0 kts | 51° |
| 2026-05-05 17:39 | 51.15012 | -0.18373 | 210 ft | 1 kts | 51° |
| 2026-05-05 17:39 | 51.15021 | -0.18355 | 219 ft | 3 kts | 51° |
| 2026-05-05 17:39 | 51.15042 | -0.18313 | 220 ft | 6 kts | 51° |
| 2026-05-05 17:40 | 51.15075 | -0.18247 | 222 ft | 9 kts | 51° |
| 2026-05-05 17:40 | 51.15112 | -0.18193 | 222 ft | 4 kts | 17° |
| 2026-05-05 17:40 | 51.15134 | -0.18188 | 221 ft | 0 kts | 1° |
| 2026-05-05 17:40 | 51.15141 | -0.18188 | 220 ft | 2 kts | 359° |
| 2026-05-05 17:41 | 51.15161 | -0.18196 | 217 ft | 5 kts | 345° |
| 2026-05-05 17:41 | 51.15205 | -0.18213 | 216 ft | 8 kts | 347° |
| 2026-05-05 17:41 | 51.15275 | -0.18238 | 221 ft | 12 kts | 347° |
| 2026-05-05 17:41 | 51.15323 | -0.18255 | 219 ft | 0 kts | 347° |
| 2026-05-05 17:42 | 51.15328 | -0.18257 | 218 ft | 2 kts | 347° |
| 2026-05-05 17:42 | 51.15360 | -0.18268 | 216 ft | 7 kts | 349° |
| 2026-05-05 17:42 | 51.15414 | -0.18256 | 216 ft | 8 kts | 32° |
| 2026-05-05 17:43 | 51.15448 | -0.18180 | 219 ft | 9 kts | 71° |
| 2026-05-05 17:43 | 51.15464 | -0.18069 | 219 ft | 12 kts | 78° |
| 2026-05-05 17:43 | 51.15484 | -0.17929 | 218 ft | 14 kts | 76° |
| 2026-05-05 17:43 | 51.15507 | -0.17756 | 216 ft | 17 kts | 78° |
| 2026-05-05 17:44 | 51.15535 | -0.17557 | 217 ft | 20 kts | 79° |
| 2026-05-05 17:44 | 51.15587 | -0.17463 | 222 ft | 9 kts | 10° |
| 2026-05-05 17:44 | 51.15655 | -0.17477 | 218 ft | 11 kts | 347° |
| 2026-05-05 17:44 | 51.15735 | -0.17487 | 218 ft | 10 kts | 24° |
| 2026-05-05 17:45 | 51.15765 | -0.17432 | 221 ft | 0 kts | 62° |
| 2026-05-05 17:45 | 51.15767 | -0.17428 | 220 ft | 2 kts | 58° |
| 2026-05-05 17:45 | 51.15779 | -0.17417 | 220 ft | 2 kts | 19° |
| 2026-05-05 17:46 | 51.15802 | -0.17416 | 222 ft | 5 kts | 356° |
| 2026-05-05 17:46 | 51.15837 | -0.17425 | 213 ft | 0 kts | 348° |
| 2026-05-05 17:46 | 51.15840 | -0.17426 | 214 ft | 0 kts | 348° |
| 2026-05-05 17:47 | 51.15846 | -0.17427 | 215 ft | 0 kts | 353° |